ENY3614 KAUS-KELP
Flight info
| Callsign | ENY3614 |
|---|---|
| Flight time | 1h 20m |
| Altitude | 34000 |
| Route | MUCKY3 MUCKY JCT TXSAS BEAHR3 |
| Aircraft | A20N/M-SDE2E3FGHIRWXY/LB1 |
Departure
| Time | 2026-05-07 21:14 |
|---|---|
| Airport | Austin Bergstrom International Airport (KAUS) |
Arrival
| Time | 2026-05-07 22:35 |
|---|---|
| Airport | El Paso International Airport (KELP) |
| Time | Latitude | Longitude | Altitude | Speed | Heading |
|---|---|---|---|---|---|
| 2026-05-07 20:53 | 30.20142 | -97.66593 | 513 ft | 0 kts | 351° |
| 2026-05-07 21:03 | 30.20140 | -97.66592 | 522 ft | 1 kts | 351° |
| 2026-05-07 21:03 | 30.20133 | -97.66591 | 512 ft | 1 kts | 351° |
| 2026-05-07 21:04 | 30.20125 | -97.66589 | 512 ft | 1 kts | 350° |
| 2026-05-07 21:04 | 30.20117 | -97.66588 | 512 ft | 1 kts | 350° |
| 2026-05-07 21:04 | 30.20110 | -97.66586 | 512 ft | 3 kts | 350° |
| 2026-05-07 21:04 | 30.20086 | -97.66589 | 512 ft | 4 kts | 40° |
| 2026-05-07 21:05 | 30.20071 | -97.66613 | 512 ft | 4 kts | 79° |
| 2026-05-07 21:05 | 30.20070 | -97.66617 | 512 ft | 0 kts | 83° |
| 2026-05-07 21:07 | 30.20070 | -97.66615 | 512 ft | 2 kts | 83° |
| 2026-05-07 21:07 | 30.20079 | -97.66570 | 511 ft | 9 kts | 74° |
| 2026-05-07 21:08 | 30.20103 | -97.66482 | 510 ft | 13 kts | 78° |
| 2026-05-07 21:08 | 30.20058 | -97.66392 | 507 ft | 17 kts | 169° |
| 2026-05-07 21:08 | 30.19936 | -97.66392 | 505 ft | 21 kts | 181° |
| 2026-05-07 21:08 | 30.19843 | -97.66284 | 501 ft | 24 kts | 90° |
| 2026-05-07 21:09 | 30.19850 | -97.66077 | 487 ft | 27 kts | 85° |
| 2026-05-07 21:09 | 30.19729 | -97.65981 | 489 ft | 26 kts | 178° |
| 2026-05-07 21:09 | 30.19536 | -97.65972 | 488 ft | 29 kts | 177° |
| 2026-05-07 21:09 | 30.19328 | -97.65966 | 490 ft | 31 kts | 181° |
| 2026-05-07 21:10 | 30.19103 | -97.65962 | 487 ft | 34 kts | 178° |
| 2026-05-07 21:10 | 30.18861 | -97.65957 | 488 ft | 36 kts | 179° |
| 2026-05-07 21:10 | 30.18594 | -97.65949 | 483 ft | 40 kts | 178° |
| 2026-05-07 21:10 | 30.18324 | -97.65946 | 480 ft | 38 kts | 178° |
| 2026-05-07 21:11 | 30.18058 | -97.65937 | 479 ft | 34 kts | 179° |
| 2026-05-07 21:11 | 30.17929 | -97.65908 | 481 ft | 16 kts | 126° |
| 2026-05-07 21:11 | 30.17921 | -97.65847 | 483 ft | 0 kts | 91° |
| 2026-05-07 21:13 | 30.17921 | -97.65844 | 483 ft | 3 kts | 91° |
| 2026-05-07 21:13 | 30.17921 | -97.65781 | 483 ft | 11 kts | 84° |
| 2026-05-07 21:13 | 30.17986 | -97.65735 | 478 ft | 15 kts | 1° |
| 2026-05-07 21:14 | 30.18273 | -97.65739 | 478 ft | 74 kts | 0° |
| 2026-05-07 21:14 | 30.18979 | -97.65753 | 489 ft | 126 kts | 360° |
| 2026-05-07 21:14 | 30.19937 | -97.65755 | 809 ft | 141 kts | 2° |
| 2026-05-07 21:14 | 30.20940 | -97.65755 | 1346 ft | 147 kts | 2° |
| 2026-05-07 21:15 | 30.21988 | -97.65750 | 1842 ft | 154 kts | 4° |
| 2026-05-07 21:15 | 30.23064 | -97.65738 | 2482 ft | 156 kts | 6° |
| 2026-05-07 21:15 | 30.24191 | -97.65859 | 2956 ft | 173 kts | 350° |
| 2026-05-07 21:15 | 30.25348 | -97.66467 | 3484 ft | 194 kts | 329° |
| 2026-05-07 21:16 | 30.26371 | -97.67589 | 4043 ft | 214 kts | 309° |
| 2026-05-07 21:16 | 30.27110 | -97.69165 | 4654 ft | 233 kts | 290° |
| 2026-05-07 21:16 | 30.27471 | -97.71085 | 5188 ft | 255 kts | 277° |
| 2026-05-07 21:16 | 30.27634 | -97.73187 | 5899 ft | 269 kts | 272° |
| 2026-05-07 21:17 | 30.27721 | -97.75388 | 6827 ft | 276 kts | 271° |
| 2026-05-07 21:17 | 30.27809 | -97.77586 | 7962 ft | 273 kts | 271° |
| 2026-05-07 21:17 | 30.27901 | -97.79790 | 8960 ft | 275 kts | 271° |
| 2026-05-07 21:17 | 30.28004 | -97.81994 | 10011 ft | 274 kts | 270° |
| 2026-05-07 21:18 | 30.28075 | -97.84237 | 10661 ft | 288 kts | 269° |
| 2026-05-07 21:18 | 30.28130 | -97.86638 | 11017 ft | 309 kts | 269° |
| 2026-05-07 21:18 | 30.28170 | -97.88316 | 11286 ft | 321 kts | 269° |
| 2026-05-07 21:18 | 30.28266 | -97.91796 | 12459 ft | 323 kts | 269° |
| 2026-05-07 21:19 | 30.28317 | -97.93510 | 13097 ft | 323 kts | 269° |
| 2026-05-07 21:19 | 30.28396 | -97.96106 | 13995 ft | 324 kts | 269° |
| 2026-05-07 21:19 | 30.28474 | -97.98729 | 14771 ft | 327 kts | 269° |
| 2026-05-07 21:19 | 30.28552 | -98.01374 | 15512 ft | 331 kts | 269° |
| 2026-05-07 21:20 | 30.28630 | -98.04045 | 16252 ft | 334 kts | 270° |
| 2026-05-07 21:20 | 30.28709 | -98.06743 | 16979 ft | 337 kts | 270° |
| 2026-05-07 21:20 | 30.28961 | -98.09455 | 17692 ft | 342 kts | 278° |
| 2026-05-07 21:20 | 30.29416 | -98.12165 | 18396 ft | 346 kts | 279° |
| 2026-05-07 21:21 | 30.29891 | -98.14912 | 19013 ft | 349 kts | 278° |
| 2026-05-07 21:21 | 30.30369 | -98.17674 | 19619 ft | 352 kts | 278° |
| 2026-05-07 21:21 | 30.30847 | -98.20463 | 20223 ft | 355 kts | 278° |
| 2026-05-07 21:21 | 30.31325 | -98.23273 | 20840 ft | 357 kts | 277° |
| 2026-05-07 21:22 | 30.31806 | -98.26109 | 21437 ft | 361 kts | 277° |
| 2026-05-07 21:22 | 30.32290 | -98.28968 | 22027 ft | 363 kts | 277° |
| 2026-05-07 21:22 | 30.32777 | -98.31852 | 22603 ft | 367 kts | 276° |
| 2026-05-07 21:22 | 30.33267 | -98.34753 | 23184 ft | 370 kts | 276° |
| 2026-05-07 21:23 | 30.33760 | -98.37678 | 23741 ft | 372 kts | 276° |
| 2026-05-07 21:23 | 30.34257 | -98.40631 | 24212 ft | 375 kts | 276° |
| 2026-05-07 21:23 | 30.34757 | -98.43608 | 24712 ft | 377 kts | 276° |
| 2026-05-07 21:23 | 30.35255 | -98.46586 | 25192 ft | 379 kts | 276° |
| 2026-05-07 21:24 | 30.35759 | -98.49595 | 25664 ft | 381 kts | 276° |
| 2026-05-07 21:24 | 30.36256 | -98.52575 | 26124 ft | 383 kts | 276° |
| 2026-05-07 21:24 | 30.36769 | -98.55651 | 26581 ft | 385 kts | 276° |
| 2026-05-07 21:24 | 30.37277 | -98.58703 | 27038 ft | 387 kts | 276° |
| 2026-05-07 21:25 | 30.37780 | -98.61731 | 27463 ft | 389 kts | 276° |
| 2026-05-07 21:25 | 30.38293 | -98.64818 | 27902 ft | 391 kts | 276° |
| 2026-05-07 21:25 | 30.38807 | -98.67921 | 28316 ft | 393 kts | 276° |
| 2026-05-07 21:25 | 30.39323 | -98.71041 | 28739 ft | 395 kts | 276° |
| 2026-05-07 21:26 | 30.39842 | -98.74177 | 29155 ft | 397 kts | 276° |
| 2026-05-07 21:26 | 30.40362 | -98.77331 | 29539 ft | 400 kts | 276° |
| 2026-05-07 21:26 | 30.40884 | -98.80502 | 29927 ft | 402 kts | 276° |
| 2026-05-07 21:26 | 30.41408 | -98.83691 | 30291 ft | 404 kts | 276° |
| 2026-05-07 21:27 | 30.41932 | -98.86886 | 30663 ft | 405 kts | 276° |
| 2026-05-07 21:27 | 30.42504 | -98.90091 | 31033 ft | 407 kts | 277° |
| 2026-05-07 21:27 | 30.43128 | -98.93297 | 31415 ft | 408 kts | 277° |
| 2026-05-07 21:27 | 30.43762 | -98.96496 | 31880 ft | 406 kts | 277° |
| 2026-05-07 21:28 | 30.44386 | -98.99680 | 32387 ft | 404 kts | 277° |
| 2026-05-07 21:28 | 30.44999 | -99.02843 | 32874 ft | 401 kts | 277° |
| 2026-05-07 21:28 | 30.45603 | -99.05984 | 33381 ft | 398 kts | 277° |
| 2026-05-07 21:28 | 30.46198 | -99.09103 | 33855 ft | 395 kts | 277° |
| 2026-05-07 21:29 | 30.46788 | -99.12204 | 34047 ft | 392 kts | 277° |
| 2026-05-07 21:29 | 30.47372 | -99.15285 | 34086 ft | 391 kts | 277° |
| 2026-05-07 21:29 | 30.48536 | -99.21435 | 34086 ft | 391 kts | 277° |
| 2026-05-07 21:30 | 30.49697 | -99.27586 | 34079 ft | 390 kts | 277° |
| 2026-05-07 21:30 | 30.50856 | -99.33734 | 34080 ft | 390 kts | 277° |
| 2026-05-07 21:31 | 30.52013 | -99.39879 | 34091 ft | 390 kts | 277° |
| 2026-05-07 21:31 | 30.53167 | -99.46032 | 34081 ft | 390 kts | 277° |
| 2026-05-07 21:32 | 30.54318 | -99.52185 | 34093 ft | 390 kts | 277° |
| 2026-05-07 21:32 | 30.55467 | -99.58341 | 34116 ft | 391 kts | 277° |
| 2026-05-07 21:33 | 30.56613 | -99.64503 | 34115 ft | 391 kts | 277° |
| 2026-05-07 21:33 | 30.57757 | -99.70671 | 34120 ft | 391 kts | 277° |
| 2026-05-07 21:34 | 30.58901 | -99.76850 | 34119 ft | 392 kts | 277° |
| 2026-05-07 21:34 | 30.60047 | -99.83040 | 34123 ft | 393 kts | 277° |
| 2026-05-07 21:35 | 30.61298 | -99.89226 | 34113 ft | 395 kts | 278° |
| 2026-05-07 21:35 | 30.62581 | -99.95437 | 34101 ft | 396 kts | 278° |
| 2026-05-07 21:36 | 30.63851 | -100.01656 | 34086 ft | 397 kts | 277° |
| 2026-05-07 21:36 | 30.65118 | -100.07903 | 34075 ft | 398 kts | 277° |
| 2026-05-07 21:37 | 30.66385 | -100.14171 | 34071 ft | 399 kts | 277° |
| 2026-05-07 21:37 | 30.67650 | -100.20459 | 34072 ft | 400 kts | 277° |
| 2026-05-07 21:38 | 30.68907 | -100.26716 | 34079 ft | 401 kts | 277° |
| 2026-05-07 21:38 | 30.70172 | -100.33037 | 34099 ft | 402 kts | 277° |
| 2026-05-07 21:39 | 30.71437 | -100.39372 | 34106 ft | 403 kts | 277° |
| 2026-05-07 21:39 | 30.72701 | -100.45720 | 34123 ft | 403 kts | 276° |
| 2026-05-07 21:40 | 30.73962 | -100.52069 | 34130 ft | 404 kts | 276° |
| 2026-05-07 21:40 | 30.75223 | -100.58431 | 34132 ft | 404 kts | 276° |
| 2026-05-07 21:41 | 30.76483 | -100.64807 | 34133 ft | 404 kts | 276° |
| 2026-05-07 21:41 | 30.77738 | -100.71176 | 34126 ft | 405 kts | 276° |
| 2026-05-07 21:42 | 30.78992 | -100.77557 | 34111 ft | 405 kts | 275° |
| 2026-05-07 21:42 | 30.80244 | -100.83941 | 34102 ft | 405 kts | 275° |
| 2026-05-07 21:43 | 30.81494 | -100.90337 | 34094 ft | 405 kts | 275° |
| 2026-05-07 21:43 | 30.82739 | -100.96724 | 34105 ft | 405 kts | 275° |
| 2026-05-07 21:44 | 30.83981 | -101.03118 | 34118 ft | 405 kts | 275° |
| 2026-05-07 21:44 | 30.85219 | -101.09508 | 34119 ft | 404 kts | 275° |
| 2026-05-07 21:45 | 30.86452 | -101.15892 | 34124 ft | 404 kts | 274° |
| 2026-05-07 21:45 | 30.87681 | -101.22268 | 34121 ft | 403 kts | 274° |
| 2026-05-07 21:46 | 30.88904 | -101.28636 | 34119 ft | 403 kts | 274° |
| 2026-05-07 21:46 | 30.90121 | -101.34991 | 34111 ft | 402 kts | 274° |
| 2026-05-07 21:47 | 30.91332 | -101.41331 | 34102 ft | 401 kts | 274° |
| 2026-05-07 21:47 | 30.92536 | -101.47642 | 34077 ft | 398 kts | 274° |
| 2026-05-07 21:48 | 30.93728 | -101.53920 | 34066 ft | 396 kts | 274° |
| 2026-05-07 21:48 | 30.94912 | -101.60176 | 34071 ft | 395 kts | 273° |
| 2026-05-07 21:49 | 30.96092 | -101.66424 | 34064 ft | 394 kts | 273° |
| 2026-05-07 21:49 | 30.97267 | -101.72660 | 34052 ft | 393 kts | 273° |
| 2026-05-07 21:50 | 30.98436 | -101.78885 | 34042 ft | 393 kts | 273° |
| 2026-05-07 21:50 | 30.99601 | -101.85102 | 34035 ft | 392 kts | 273° |
| 2026-05-07 21:51 | 31.00754 | -101.91278 | 34027 ft | 393 kts | 272° |
| 2026-05-07 21:51 | 31.01914 | -101.97513 | 34043 ft | 396 kts | 272° |
| 2026-05-07 21:52 | 31.03080 | -102.03792 | 34031 ft | 396 kts | 272° |
| 2026-05-07 21:52 | 31.04252 | -102.10117 | 34031 ft | 397 kts | 272° |
| 2026-05-07 21:53 | 31.05406 | -102.16363 | 34026 ft | 397 kts | 272° |
| 2026-05-07 21:53 | 31.06565 | -102.22657 | 34024 ft | 397 kts | 272° |
| 2026-05-07 21:54 | 31.07720 | -102.28945 | 34013 ft | 396 kts | 272° |
| 2026-05-07 21:54 | 31.08870 | -102.35229 | 34004 ft | 396 kts | 272° |
| 2026-05-07 21:55 | 31.10017 | -102.41511 | 33994 ft | 396 kts | 272° |
| 2026-05-07 21:55 | 31.11159 | -102.47790 | 33984 ft | 395 kts | 272° |
| 2026-05-07 21:56 | 31.12298 | -102.54070 | 33985 ft | 395 kts | 272° |
| 2026-05-07 21:56 | 31.13435 | -102.60351 | 33988 ft | 395 kts | 272° |
| 2026-05-07 21:57 | 31.14566 | -102.66626 | 33992 ft | 395 kts | 272° |
| 2026-05-07 21:57 | 31.15696 | -102.72911 | 34003 ft | 396 kts | 272° |
| 2026-05-07 21:58 | 31.16824 | -102.79199 | 34008 ft | 396 kts | 272° |
| 2026-05-07 21:58 | 31.17948 | -102.85490 | 34009 ft | 396 kts | 272° |
| 2026-05-07 21:59 | 31.19071 | -102.91786 | 34006 ft | 396 kts | 272° |
| 2026-05-07 21:59 | 31.20191 | -102.98085 | 33994 ft | 396 kts | 272° |
| 2026-05-07 22:00 | 31.21300 | -103.04344 | 33981 ft | 396 kts | 272° |
| 2026-05-07 22:00 | 31.22414 | -103.10646 | 33971 ft | 396 kts | 272° |
| 2026-05-07 22:01 | 31.23523 | -103.16939 | 33977 ft | 396 kts | 272° |
| 2026-05-07 22:01 | 31.24629 | -103.23238 | 33993 ft | 396 kts | 272° |
| 2026-05-07 22:02 | 31.25732 | -103.29532 | 34004 ft | 394 kts | 272° |
| 2026-05-07 22:02 | 31.26828 | -103.35801 | 34026 ft | 393 kts | 271° |
| 2026-05-07 22:03 | 31.27918 | -103.42067 | 34041 ft | 393 kts | 271° |
| 2026-05-07 22:03 | 31.29004 | -103.48327 | 34052 ft | 393 kts | 271° |
| 2026-05-07 22:04 | 31.30087 | -103.54584 | 34054 ft | 392 kts | 271° |
| 2026-05-07 22:04 | 31.31165 | -103.60826 | 34033 ft | 391 kts | 271° |
| 2026-05-07 22:05 | 31.32236 | -103.67056 | 34011 ft | 390 kts | 271° |
| 2026-05-07 22:05 | 31.33122 | -103.72221 | 34003 ft | 390 kts | 271° |
| 2026-05-07 22:06 | 31.34185 | -103.78436 | 33989 ft | 389 kts | 271° |
| 2026-05-07 22:06 | 31.35244 | -103.84644 | 33967 ft | 389 kts | 271° |
| 2026-05-07 22:07 | 31.36299 | -103.90851 | 33950 ft | 389 kts | 271° |
| 2026-05-07 22:07 | 31.37351 | -103.97060 | 33944 ft | 389 kts | 271° |
| 2026-05-07 22:08 | 31.38401 | -104.03274 | 33950 ft | 389 kts | 271° |
| 2026-05-07 22:08 | 31.39448 | -104.09489 | 33958 ft | 390 kts | 271° |
| 2026-05-07 22:09 | 31.40495 | -104.15720 | 33966 ft | 390 kts | 271° |
| 2026-05-07 22:09 | 31.41539 | -104.21959 | 33966 ft | 391 kts | 271° |
| 2026-05-07 22:10 | 31.42583 | -104.28203 | 33970 ft | 391 kts | 271° |
| 2026-05-07 22:10 | 31.43625 | -104.34451 | 33968 ft | 391 kts | 271° |
| 2026-05-07 22:11 | 31.44664 | -104.40700 | 33973 ft | 391 kts | 271° |
| 2026-05-07 22:11 | 31.45503 | -104.46946 | 33969 ft | 385 kts | 267° |
| 2026-05-07 22:12 | 31.46147 | -104.53144 | 33970 ft | 386 kts | 268° |
| 2026-05-07 22:12 | 31.46817 | -104.59420 | 33959 ft | 385 kts | 268° |
| 2026-05-07 22:13 | 31.47472 | -104.65646 | 33960 ft | 386 kts | 268° |
| 2026-05-07 22:13 | 31.48121 | -104.71885 | 33954 ft | 386 kts | 268° |
| 2026-05-07 22:14 | 31.48767 | -104.78126 | 33957 ft | 386 kts | 268° |
| 2026-05-07 22:14 | 31.49410 | -104.84367 | 33945 ft | 386 kts | 268° |
| 2026-05-07 22:15 | 31.50049 | -104.90601 | 33938 ft | 385 kts | 268° |
| 2026-05-07 22:15 | 31.50680 | -104.96782 | 33909 ft | 383 kts | 268° |
| 2026-05-07 22:16 | 31.50995 | -104.99880 | 33524 ft | 383 kts | 268° |
| 2026-05-07 22:16 | 31.51308 | -105.02996 | 32628 ft | 388 kts | 268° |
| 2026-05-07 22:16 | 31.51622 | -105.06186 | 31336 ft | 401 kts | 268° |
| 2026-05-07 22:16 | 31.51946 | -105.09477 | 30142 ft | 411 kts | 269° |
| 2026-05-07 22:17 | 31.52281 | -105.12831 | 28928 ft | 417 kts | 269° |
| 2026-05-07 22:17 | 31.52621 | -105.16185 | 28106 ft | 413 kts | 270° |
| 2026-05-07 22:17 | 31.52959 | -105.19513 | 27345 ft | 409 kts | 270° |
| 2026-05-07 22:17 | 31.53291 | -105.22810 | 26574 ft | 406 kts | 270° |
| 2026-05-07 22:18 | 31.53617 | -105.26081 | 25828 ft | 402 kts | 270° |
| 2026-05-07 22:18 | 31.54257 | -105.32546 | 24382 ft | 397 kts | 270° |
| 2026-05-07 22:18 | 31.54571 | -105.35745 | 23688 ft | 394 kts | 271° |
| 2026-05-07 22:19 | 31.54883 | -105.38926 | 22896 ft | 392 kts | 271° |
| 2026-05-07 22:19 | 31.55192 | -105.42083 | 22139 ft | 388 kts | 271° |
| 2026-05-07 22:19 | 31.55497 | -105.45216 | 21371 ft | 386 kts | 272° |
| 2026-05-07 22:19 | 31.55799 | -105.48329 | 20603 ft | 384 kts | 272° |
| 2026-05-07 22:20 | 31.56099 | -105.51426 | 19904 ft | 381 kts | 273° |
| 2026-05-07 22:20 | 31.56391 | -105.54445 | 19195 ft | 379 kts | 273° |
| 2026-05-07 22:20 | 31.56691 | -105.57561 | 18495 ft | 377 kts | 274° |
| 2026-05-07 22:20 | 31.56985 | -105.60608 | 17760 ft | 375 kts | 274° |
| 2026-05-07 22:21 | 31.57278 | -105.63633 | 17040 ft | 372 kts | 274° |
| 2026-05-07 22:21 | 31.57569 | -105.66631 | 16337 ft | 369 kts | 274° |
| 2026-05-07 22:21 | 31.57855 | -105.69600 | 15649 ft | 366 kts | 274° |
| 2026-05-07 22:21 | 31.58138 | -105.72555 | 14969 ft | 363 kts | 274° |
| 2026-05-07 22:22 | 31.58419 | -105.75488 | 14325 ft | 361 kts | 274° |
| 2026-05-07 22:22 | 31.58833 | -105.78389 | 13685 ft | 362 kts | 281° |
| 2026-05-07 22:22 | 31.59637 | -105.81171 | 13221 ft | 356 kts | 290° |
| 2026-05-07 22:22 | 31.60758 | -105.83704 | 13047 ft | 344 kts | 297° |
| 2026-05-07 22:23 | 31.61960 | -105.86065 | 12811 ft | 332 kts | 297° |
| 2026-05-07 22:23 | 31.63126 | -105.88386 | 12313 ft | 330 kts | 299° |
| 2026-05-07 22:23 | 31.64665 | -105.90380 | 11898 ft | 332 kts | 316° |
| 2026-05-07 22:23 | 31.66460 | -105.92125 | 11581 ft | 336 kts | 317° |
| 2026-05-07 22:24 | 31.68249 | -105.93873 | 11257 ft | 332 kts | 317° |
| 2026-05-07 22:24 | 31.70011 | -105.95610 | 10952 ft | 330 kts | 317° |
| 2026-05-07 22:24 | 31.71754 | -105.97333 | 10646 ft | 325 kts | 317° |
| 2026-05-07 22:24 | 31.73460 | -105.99030 | 10367 ft | 317 kts | 317° |
| 2026-05-07 22:25 | 31.75118 | -106.00687 | 10127 ft | 309 kts | 317° |
| 2026-05-07 22:25 | 31.76813 | -106.02185 | 9872 ft | 303 kts | 332° |
| 2026-05-07 22:25 | 31.78745 | -106.03114 | 9618 ft | 298 kts | 337° |
| 2026-05-07 22:25 | 31.80660 | -106.03974 | 9339 ft | 292 kts | 337° |
| 2026-05-07 22:26 | 31.82538 | -106.04815 | 9067 ft | 286 kts | 337° |
| 2026-05-07 22:26 | 31.84380 | -106.05634 | 8809 ft | 281 kts | 337° |
| 2026-05-07 22:26 | 31.86184 | -106.06442 | 8569 ft | 274 kts | 337° |
| 2026-05-07 22:26 | 31.87936 | -106.07225 | 8395 ft | 265 kts | 337° |
| 2026-05-07 22:27 | 31.89605 | -106.07969 | 8233 ft | 255 kts | 337° |
| 2026-05-07 22:27 | 31.91230 | -106.08692 | 8082 ft | 244 kts | 337° |
| 2026-05-07 22:27 | 31.92775 | -106.09379 | 7991 ft | 231 kts | 337° |
| 2026-05-07 22:27 | 31.94231 | -106.10036 | 7912 ft | 217 kts | 332° |
| 2026-05-07 22:28 | 31.95307 | -106.11129 | 7856 ft | 195 kts | 299° |
| 2026-05-07 22:28 | 31.95805 | -106.12511 | 7847 ft | 175 kts | 287° |
| 2026-05-07 22:28 | 31.96192 | -106.13819 | 7772 ft | 167 kts | 284° |
| 2026-05-07 22:28 | 31.96406 | -106.15207 | 7713 ft | 177 kts | 276° |
| 2026-05-07 22:29 | 31.96365 | -106.16647 | 7646 ft | 176 kts | 254° |
| 2026-05-07 22:29 | 31.95843 | -106.17931 | 7585 ft | 174 kts | 237° |
| 2026-05-07 22:29 | 31.95095 | -106.19060 | 7516 ft | 175 kts | 230° |
| 2026-05-07 22:29 | 31.94297 | -106.20150 | 7431 ft | 177 kts | 231° |
| 2026-05-07 22:30 | 31.93497 | -106.21277 | 7235 ft | 181 kts | 231° |
| 2026-05-07 22:30 | 31.92700 | -106.22396 | 7015 ft | 177 kts | 231° |
| 2026-05-07 22:30 | 31.91923 | -106.23486 | 6799 ft | 171 kts | 231° |
| 2026-05-07 22:30 | 31.91152 | -106.24569 | 6594 ft | 175 kts | 231° |
| 2026-05-07 22:31 | 31.90368 | -106.25667 | 6386 ft | 175 kts | 231° |
| 2026-05-07 22:31 | 31.89594 | -106.26755 | 6164 ft | 171 kts | 231° |
| 2026-05-07 22:31 | 31.88834 | -106.27820 | 5950 ft | 170 kts | 231° |
| 2026-05-07 22:31 | 31.88079 | -106.28879 | 5735 ft | 166 kts | 231° |
| 2026-05-07 22:32 | 31.87352 | -106.29899 | 5532 ft | 160 kts | 232° |
| 2026-05-07 22:32 | 31.86652 | -106.30879 | 5323 ft | 153 kts | 232° |
| 2026-05-07 22:32 | 31.85987 | -106.31812 | 5149 ft | 144 kts | 231° |
| 2026-05-07 22:32 | 31.85375 | -106.32670 | 4982 ft | 133 kts | 231° |
| 2026-05-07 22:33 | 31.84758 | -106.33537 | 4829 ft | 143 kts | 230° |
| 2026-05-07 22:33 | 31.84117 | -106.34433 | 4625 ft | 143 kts | 229° |
| 2026-05-07 22:33 | 31.83489 | -106.35316 | 4404 ft | 140 kts | 228° |
| 2026-05-07 22:33 | 31.82854 | -106.36236 | 4197 ft | 148 kts | 226° |
| 2026-05-07 22:34 | 31.82195 | -106.37136 | 3998 ft | 143 kts | 229° |
| 2026-05-07 22:34 | 31.81590 | -106.37985 | 3949 ft | 118 kts | 230° |
| 2026-05-07 22:34 | 31.81193 | -106.38538 | 3946 ft | 62 kts | 230° |
| 2026-05-07 22:34 | 31.80920 | -106.38914 | 3941 ft | 59 kts | 229° |
| 2026-05-07 22:35 | 31.80662 | -106.39270 | 3935 ft | 55 kts | 230° |
| 2026-05-07 22:35 | 31.80446 | -106.39561 | 3935 ft | 22 kts | 211° |
| 2026-05-07 22:35 | 31.80307 | -106.39583 | 3934 ft | 21 kts | 181° |
| 2026-05-07 22:35 | 31.80184 | -106.39574 | 3932 ft | 17 kts | 166° |
| 2026-05-07 22:36 | 31.80089 | -106.39553 | 3931 ft | 12 kts | 185° |
| 2026-05-07 22:36 | 31.80037 | -106.39571 | 3929 ft | 0 kts | 201° |